YMUA weather

Monduran Airport
Queensland, Australia

Public forecast

Using degrees Celsius for public forecast. Weather courtesy of forecast.io.

Closest aviation weather report (METAR) to Monduran Airport

Closest report is Bundaberg Airport, 22.0 nm (40.7 km) E. Retrieved 2020/02/21 05:00 UTC (1 hour ago):

YBUD 210500Z AUTO 08014KT 9999 // SCT030 30/21 Q1010

Closest aviation forecast (TAF) to Monduran Airport

Forecast is more than 6 hours old.

Closest forecast is Gladstone Airport, 71.3 nm (132.0 km) NNW. Retrieved 2020-02-21 00:00 UTC (6 hours ago):

TAF YGLA 202308Z 2100/2112 09014KT 9999 -SHRA SCT025 PROB30 TEMPO 2102/2112 VRB25G35KT 1000 TSRA BKN010 SCT020CB